Time;durP1;ratioP1;P1;durP2;ratioP2;P2;SDS_P1;SDS_P2;PMS_P1;PMS_P2;Temp;Humidity;BMP_temperature;BMP_pressure;BME280_temperature;BME280_humidity;BME280_pressure;Samples;Min_cycle;Max_cycle;Signal;HPM_P1;HPM_P2
2024/02/05 05:02:22;;;;;;;1.02;0.85;;;9.20;99.90;;;;;;5058615;23;20255;-69
2024/02/05 05:04:49;;;;;;;0.88;0.80;;;9.30;99.90;;;;;;4969753;28;20220;-71
2024/02/05 05:07:16;;;;;;;0.50;0.50;;;9.30;99.90;;;;;;4970228;28;20208;-70
2024/02/05 05:09:42;;;;;;;0.80;0.80;;;9.30;99.90;;;;;;4969305;28;20224;-69
2024/02/05 05:12:09;;;;;;;2.10;0.55;;;9.30;99.90;;;;;;4967113;28;20236;-69
2024/02/05 05:14:38;;;;;;;3.83;1.30;;;9.40;99.90;;;;;;4969100;28;20219;-69
2024/02/05 05:17:05;;;;;;;2.25;0.73;;;9.40;99.90;;;;;;4966726;28;20209;-69
2024/02/05 05:19:33;;;;;;;2.05;1.00;;;9.40;99.90;;;;;;4971428;28;20576;-70
2024/02/05 05:22:00;;;;;;;4.35;1.00;;;9.40;99.90;;;;;;4970939;28;20228;-69
2024/02/05 05:24:26;;;;;;;5.45;1.20;;;9.40;99.90;;;;;;4970174;28;20205;-69
2024/02/05 05:26:53;;;;;;;0.80;0.80;;;9.40;99.90;;;;;;4969860;28;20213;-69
2024/02/05 05:29:20;;;;;;;1.30;1.30;;;9.40;99.90;;;;;;4969774;28;20229;-69
2024/02/05 05:31:47;;;;;;;4.60;1.52;;;9.40;99.90;;;;;;4970741;28;20259;-69
2024/02/05 05:34:14;;;;;;;1.23;1.00;;;9.40;99.90;;;;;;4969533;28;20787;-70
2024/02/05 05:36:42;;;;;;;2.05;0.70;;;9.40;99.90;;;;;;4968247;28;20216;-69
2024/02/05 05:39:09;;;;;;;1.00;0.95;;;9.40;99.90;;;;;;4972445;28;20201;-69
2024/02/05 05:41:36;;;;;;;1.17;1.17;;;9.50;99.90;;;;;;4973397;28;20251;-71
2024/02/05 05:44:03;;;;;;;0.80;0.80;;;9.50;99.90;;;;;;4972228;28;20209;-70
2024/02/05 05:46:30;;;;;;;0.90;0.88;;;9.50;99.90;;;;;;4972237;28;20560;-69
2024/02/05 05:48:56;;;;;;;1.40;1.30;;;9.50;99.90;;;;;;4974357;28;20227;-69
2024/02/05 05:51:23;;;;;;;1.15;0.60;;;9.50;99.90;;;;;;4974757;28;20244;-70
2024/02/05 05:53:51;;;;;;;0.30;0.30;;;9.50;99.90;;;;;;4972032;28;20209;-69
2024/02/05 05:56:18;;;;;;;0.30;0.30;;;9.50;99.90;;;;;;4972260;28;20723;-69
2024/02/05 05:58:45;;;;;;;0.80;0.80;;;9.50;99.90;;;;;;4973533;28;20198;-70
2024/02/05 06:01:12;;;;;;;0.50;0.50;;;9.40;99.90;;;;;;4972478;28;20232;-68
2024/02/05 06:03:41;;;;;;;1.17;0.70;;;9.30;99.90;;;;;;4972512;28;20209;-73
2024/02/05 06:06:08;;;;;;;1.85;0.65;;;9.30;99.90;;;;;;4973157;28;20205;-69
2024/02/05 06:08:34;;;;;;;0.77;0.77;;;9.20;99.90;;;;;;4973671;28;20272;-71
2024/02/05 06:11:02;;;;;;;0.70;0.70;;;9.20;99.90;;;;;;4973913;28;20235;-71
2024/02/05 06:13:31;;;;;;;1.25;0.50;;;9.20;99.90;;;;;;4971941;28;20583;-71
2024/02/05 06:15:57;;;;;;;0.50;0.50;;;9.20;99.90;;;;;;4973243;28;20228;-71
2024/02/05 06:18:24;;;;;;;5.97;1.05;;;9.20;99.90;;;;;;4971610;28;20208;-70
2024/02/05 06:20:51;;;;;;;1.25;0.90;;;9.20;99.90;;;;;;4970953;28;20321;-70
2024/02/05 06:23:17;;;;;;;2.17;2.00;;;9.10;99.90;;;;;;4972146;28;20215;-71
2024/02/05 06:25:44;;;;;;;2.58;0.90;;;9.10;99.90;;;;;;4974307;28;20683;-71
2024/02/05 06:28:13;;;;;;;2.47;1.42;;;9.10;99.90;;;;;;4973346;28;20212;-70
2024/02/05 06:30:42;;;;;;;0.82;0.82;;;9.10;99.90;;;;;;4971705;28;20236;-70
2024/02/05 06:33:09;;;;;;;1.10;1.10;;;9.00;99.90;;;;;;4970762;28;20204;-69
2024/02/05 06:35:36;;;;;;;1.65;0.98;;;9.00;99.90;;;;;;4973797;28;20674;-70
2024/02/05 06:38:02;;;;;;;8.57;1.75;;;9.00;99.90;;;;;;4970708;28;20216;-71
2024/02/05 06:40:29;;;;;;;5.35;1.25;;;9.00;99.90;;;;;;4972870;28;20255;-70
2024/02/05 06:42:56;;;;;;;3.50;1.35;;;8.90;99.90;;;;;;4970330;28;20243;-71
2024/02/05 06:45:24;;;;;;;1.30;1.30;;;8.90;99.90;;;;;;4972235;28;20225;-70
2024/02/05 06:47:52;;;;;;;7.68;1.40;;;9.00;99.90;;;;;;4972938;28;20243;-71
2024/02/05 06:50:19;;;;;;;3.70;2.10;;;8.90;99.90;;;;;;4973022;28;20220;-71
2024/02/05 06:52:47;;;;;;;2.55;1.40;;;9.00;99.90;;;;;;4971746;28;20208;-69
2024/02/05 06:55:15;;;;;;;1.42;1.33;;;9.00;99.90;;;;;;4973642;28;20239;-69
2024/02/05 06:57:42;;;;;;;5.45;2.55;;;9.00;99.90;;;;;;4969496;28;20314;-69
2024/02/05 07:00:10;;;;;;;2.50;1.80;;;9.00;99.90;;;;;;4969849;28;20666;-69
2024/02/05 07:02:38;;;;;;;2.47;2.22;;;9.00;99.90;;;;;;4968831;28;20247;-70
2024/02/05 07:05:05;;;;;;;5.90;1.85;;;9.00;99.90;;;;;;4971303;28;20205;-68
2024/02/05 07:07:32;;;;;;;4.20;2.90;;;9.10;99.90;;;;;;4970761;28;20212;-68
2024/02/05 07:10:00;;;;;;;3.50;3.13;;;9.00;99.90;;;;;;4970983;28;20679;-69
2024/02/05 07:12:26;;;;;;;9.15;2.92;;;9.00;99.90;;;;;;4972674;28;20259;-70
2024/02/05 07:14:53;;;;;;;2.28;2.00;;;9.00;99.90;;;;;;4970863;28;20208;-71
2024/02/05 07:17:30;;;;;;;5.93;2.20;;;9.00;99.90;;;;;;4968474;28;20614;-69
2024/02/05 07:20:01;;;;;;;6.72;2.28;;;9.00;99.90;;;;;;4966787;28;20207;-70
2024/02/05 07:22:28;;;;;;;4.85;2.30;;;9.00;99.90;;;;;;4970524;28;20232;-67
2024/02/05 07:24:54;;;;;;;7.13;2.67;;;9.00;99.90;;;;;;4972625;28;20201;-70
2024/02/05 07:27:22;;;;;;;2.58;2.38;;;9.00;99.90;;;;;;4969083;28;20220;-70
2024/02/05 07:29:49;;;;;;;3.83;2.33;;;9.00;99.90;;;;;;4970420;28;20227;-70
2024/02/05 07:32:16;;;;;;;2.20;2.10;;;9.00;99.90;;;;;;4970670;28;20231;-68
2024/02/05 07:34:43;;;;;;;2.83;2.65;;;9.00;99.90;;;;;;4969521;28;20231;-69
2024/02/05 07:37:11;;;;;;;7.18;3.17;;;9.00;99.90;;;;;;4965008;28;20213;-71
2024/02/05 07:39:38;;;;;;;4.00;3.38;;;9.00;99.90;;;;;;4961930;28;20213;-70
2024/02/05 07:42:05;;;;;;;5.82;3.50;;;9.00;99.90;;;;;;4968068;28;20877;-70
2024/02/05 07:44:32;;;;;;;5.72;2.75;;;9.00;99.90;;;;;;4968363;28;20207;-69
2024/02/05 07:46:59;;;;;;;4.93;3.25;;;9.00;99.90;;;;;;4967259;28;20301;-69
2024/02/05 07:49:26;;;;;;;10.15;3.47;;;9.00;99.90;;;;;;4972253;28;20235;-70
2024/02/05 07:51:55;;;;;;;11.05;4.97;;;9.00;99.90;;;;;;4968525;28;20224;-69
2024/02/05 07:54:25;;;;;;;10.43;4.72;;;9.00;99.90;;;;;;4971375;28;20272;-70
2024/02/05 07:56:52;;;;;;;11.32;4.25;;;9.00;99.90;;;;;;4966943;28;20220;-70
2024/02/05 07:59:19;;;;;;;14.32;6.03;;;9.00;99.90;;;;;;4969767;28;20208;-69
2024/02/05 08:01:46;;;;;;;17.58;7.88;;;9.00;99.90;;;;;;4970130;28;20236;-70
2024/02/05 08:04:13;;;;;;;12.57;4.35;;;9.10;99.90;;;;;;4972349;28;20643;-69
2024/02/05 08:06:39;;;;;;;10.55;5.88;;;9.00;99.90;;;;;;4970966;28;20211;-70
2024/02/05 08:09:06;;;;;;;13.48;5.35;;;9.10;99.90;;;;;;4971933;28;20318;-70
2024/02/05 08:11:34;;;;;;;10.93;4.28;;;9.10;99.90;;;;;;4965512;28;20228;-69
2024/02/05 08:14:01;;;;;;;8.82;5.57;;;9.00;99.90;;;;;;4971819;28;20265;-69
2024/02/05 08:16:28;;;;;;;12.85;5.03;;;9.10;99.90;;;;;;4970939;28;20216;-67
2024/02/05 08:18:54;;;;;;;10.32;3.58;;;9.00;99.90;;;;;;4968801;28;20655;-71
2024/02/05 08:21:22;;;;;;;6.88;3.67;;;9.00;99.90;;;;;;4966457;28;20228;-71
2024/02/05 08:23:51;;;;;;;7.35;4.53;;;9.10;99.90;;;;;;4969125;28;20208;-71
2024/02/05 08:26:18;;;;;;;7.72;4.32;;;9.00;99.90;;;;;;4968601;28;20286;-69
2024/02/05 08:28:46;;;;;;;11.45;5.18;;;9.00;99.90;;;;;;4971492;28;20228;-70
2024/02/05 08:31:13;;;;;;;12.73;4.65;;;9.00;99.90;;;;;;4969991;28;20224;-70
2024/02/05 08:33:39;;;;;;;4.00;3.70;;;9.10;99.90;;;;;;4971393;28;20682;-69
2024/02/05 08:36:07;;;;;;;7.53;5.10;;;9.10;99.90;;;;;;4970392;28;20205;-69
2024/02/05 08:38:34;;;;;;;10.05;4.97;;;9.10;99.90;;;;;;4967297;28;20220;-69
2024/02/05 08:41:01;;;;;;;5.30;4.80;;;9.10;99.90;;;;;;4972515;28;20224;-69
2024/02/05 08:43:27;;;;;;;13.43;4.90;;;9.20;99.90;;;;;;4972127;28;20204;-67
2024/02/05 08:45:55;;;;;;;11.45;4.25;;;9.20;99.90;;;;;;4960105;28;20215;-70
2024/02/05 08:48:22;;;;;;;15.35;5.30;;;9.20;99.90;;;;;;4966855;28;20216;-70
2024/02/05 08:50:49;;;;;;;7.15;3.90;;;9.20;99.90;;;;;;4966650;28;20244;-70
2024/02/05 08:53:16;;;;;;;12.48;4.90;;;9.30;99.90;;;;;;4962075;28;20676;-69
2024/02/05 08:55:42;;;;;;;15.85;6.68;;;9.30;99.90;;;;;;4971708;28;20303;-70
2024/02/05 08:58:09;;;;;;;11.23;3.75;;;9.30;99.90;;;;;;4968395;28;20523;-70
2024/02/05 09:00:36;;;;;;;19.13;5.05;;;9.30;99.90;;;;;;4962570;28;20233;-70
2024/02/05 09:03:04;;;;;;;9.82;4.25;;;9.30;99.90;;;;;;4967864;28;20212;-69
2024/02/05 09:05:32;;;;;;;12.23;5.47;;;9.30;99.90;;;;;;4964988;28;20213;-70
2024/02/05 09:07:59;;;;;;;5.88;3.50;;;9.30;99.90;;;;;;4967154;28;20204;-70
2024/02/05 09:10:26;;;;;;;9.95;4.32;;;9.30;99.90;;;;;;4965941;28;20228;-68
2024/02/05 09:12:53;;;;;;;6.95;4.70;;;9.40;99.90;;;;;;4968255;28;20215;-69
2024/02/05 09:15:19;;;;;;;9.38;4.95;;;9.40;99.90;;;;;;4974989;28;20582;-70
2024/02/05 09:17:46;;;;;;;13.88;4.82;;;9.40;99.90;;;;;;4974603;28;20212;-70
2024/02/05 09:20:14;;;;;;;11.77;4.72;;;9.40;99.90;;;;;;4975352;28;20544;-69
2024/02/05 09:22:45;;;;;;;10.02;5.00;;;9.40;99.90;;;;;;4973085;28;20212;-70
2024/02/05 09:25:12;;;;;;;13.27;4.70;;;9.40;99.90;;;;;;4973297;28;20222;-68
2024/02/05 09:27:39;;;;;;;6.47;4.18;;;9.50;99.90;;;;;;4971356;28;20209;-67
2024/02/05 09:30:07;;;;;;;14.40;5.15;;;9.40;99.90;;;;;;4972035;28;20283;-69
2024/02/05 09:32:34;;;;;;;18.17;4.10;;;9.50;99.90;;;;;;4970662;28;20228;-68
2024/02/05 09:35:01;;;;;;;13.48;5.75;;;9.50;99.90;;;;;;4971120;28;20213;-68
2024/02/05 09:37:29;;;;;;;7.57;4.60;;;9.50;99.90;;;;;;4963801;28;20603;-69
2024/02/05 09:39:56;;;;;;;6.65;4.63;;;9.50;99.90;;;;;;4971987;28;20210;-68
2024/02/05 09:42:22;;;;;;;8.85;4.15;;;9.50;99.90;;;;;;4971281;28;20221;-69
2024/02/05 09:44:51;;;;;;;5.55;3.22;;;9.60;99.90;;;;;;4973224;28;20208;-68
2024/02/05 09:47:19;;;;;;;6.82;4.28;;;9.60;99.90;;;;;;4968497;28;20204;-68
2024/02/05 09:49:47;;;;;;;6.18;5.05;;;9.60;99.90;;;;;;4973215;28;20251;-68
2024/02/05 09:52:15;;;;;;;3.92;3.47;;;9.60;99.90;;;;;;4972246;28;20314;-68
2024/02/05 09:54:44;;;;;;;11.80;4.88;;;9.40;99.90;;;;;;4972835;28;20232;-70
2024/02/05 09:57:12;;;;;;;7.50;4.07;;;9.40;99.90;;;;;;4969359;28;20208;-69
2024/02/05 09:59:40;;;;;;;9.00;3.42;;;9.30;99.90;;;;;;4972574;28;20228;-71
2024/02/05 10:02:08;;;;;;;12.38;3.92;;;9.30;99.90;;;;;;4972679;28;20233;-71
2024/02/05 10:04:40;;;;;;;6.85;3.88;;;9.30;99.90;;;;;;4970790;28;20217;-68
2024/02/05 10:07:10;;;;;;;9.38;4.28;;;9.30;99.90;;;;;;4968911;28;20304;-69
2024/02/05 10:09:38;;;;;;;6.35;4.47;;;9.30;99.90;;;;;;4972758;28;20232;-68
2024/02/05 10:12:09;;;;;;;10.18;3.15;;;9.30;99.90;;;;;;4972855;28;20231;-67
2024/02/05 10:14:37;;;;;;;10.93;3.90;;;9.30;99.90;;;;;;4971085;28;20679;-67
2024/02/05 10:17:04;;;;;;;6.03;4.75;;;9.30;99.90;;;;;;4971312;28;20208;-67
2024/02/05 10:19:33;;;;;;;9.13;4.32;;;9.30;99.90;;;;;;4974076;28;20216;-67
2024/02/05 10:21:59;;;;;;;4.22;3.30;;;9.30;99.90;;;;;;4973654;28;20235;-67
2024/02/05 10:24:26;;;;;;;7.13;3.85;;;9.30;99.90;;;;;;4967890;28;20208;-69
2024/02/05 10:26:53;;;;;;;3.85;3.42;;;9.30;99.90;;;;;;4968902;28;20208;-68
2024/02/05 10:29:23;;;;;;;10.40;5.03;;;9.30;99.90;;;;;;4957737;28;20219;-68
2024/02/05 10:31:53;;;;;;;4.10;3.80;;;9.30;99.90;;;;;;4965766;28;20228;-67
2024/02/05 10:34:22;;;;;;;11.93;3.63;;;9.30;99.90;;;;;;4967722;28;20232;-69
2024/02/05 10:36:49;;;;;;;15.38;4.85;;;9.30;99.90;;;;;;4966641;28;20216;-69
2024/02/05 10:39:20;;;;;;;7.72;3.58;;;9.30;99.90;;;;;;4970155;28;20201;-67
2024/02/05 10:41:47;;;;;;;6.00;3.95;;;9.30;99.90;;;;;;4972170;28;20638;-68
2024/02/05 10:44:13;;;;;;;6.78;3.30;;;9.30;99.90;;;;;;4969283;28;20236;-69
2024/02/05 10:46:42;;;;;;;6.55;3.30;;;9.30;99.90;;;;;;4969027;28;20667;-68
2024/02/05 10:49:10;;;;;;;8.80;2.72;;;9.30;99.90;;;;;;4962781;28;20201;-68
2024/02/05 10:51:37;;;;;;;14.25;5.13;;;9.30;99.90;;;;;;4971482;28;20719;-72
2024/02/05 10:54:05;;;;;;;4.75;3.47;;;9.30;99.90;;;;;;4958669;28;20312;-68
2024/02/05 10:56:32;;;;;;;4.65;3.67;;;9.30;99.90;;;;;;4970729;28;20212;-69
2024/02/05 10:59:03;;;;;;;10.13;3.97;;;9.30;99.90;;;;;;4970497;28;20580;-68
2024/02/05 11:01:36;;;;;;;4.80;3.72;;;9.20;99.90;;;;;;4970778;28;20232;-69
2024/02/05 11:04:05;;;;;;;10.63;3.67;;;9.20;99.90;;;;;;4971172;28;20566;-68
2024/02/05 11:06:37;;;;;;;7.20;3.95;;;9.20;99.90;;;;;;4969421;28;20589;-67
2024/02/05 11:09:08;;;;;;;9.85;3.05;;;9.20;99.90;;;;;;4972067;28;20212;-68
2024/02/05 11:11:37;;;;;;;13.13;5.88;;;9.20;99.90;;;;;;4971159;28;20294;-69
2024/02/05 11:14:08;;;;;;;6.20;4.65;;;9.20;99.90;;;;;;4962307;28;20232;-69
2024/02/05 11:16:37;;;;;;;10.63;5.18;;;9.30;99.90;;;;;;4968689;28;20216;-70
2024/02/05 11:19:09;;;;;;;12.30;3.97;;;9.20;99.90;;;;;;4968389;28;22247;-70
2024/02/05 11:21:42;;;;;;;11.45;4.88;;;9.20;99.90;;;;;;4970660;28;20220;-70
2024/02/05 11:24:11;;;;;;;9.25;5.07;;;9.20;99.90;;;;;;4964709;28;20251;-68
2024/02/05 11:26:39;;;;;;;5.22;4.30;;;9.20;99.90;;;;;;4971153;28;20291;-67
2024/02/05 11:29:05;;;;;;;10.07;4.25;;;9.20;99.90;;;;;;4967624;28;20659;-67
2024/02/05 11:31:36;;;;;;;4.25;3.92;;;9.20;99.90;;;;;;4970725;28;20240;-68
2024/02/05 11:34:06;;;;;;;7.20;3.55;;;9.20;99.90;;;;;;4970177;28;20667;-68
2024/02/05 11:36:33;;;;;;;4.85;4.50;;;9.20;99.90;;;;;;4960022;28;20671;-68
2024/02/05 11:39:04;;;;;;;15.25;5.28;;;9.20;99.90;;;;;;4969758;28;20212;-68
2024/02/05 11:41:31;;;;;;;10.00;5.35;;;9.30;99.90;;;;;;4964210;28;20244;-70
2024/02/05 11:44:05;;;;;;;7.40;4.10;;;9.20;99.90;;;;;;4968474;28;20594;-67
2024/02/05 11:46:32;;;;;;;7.97;5.10;;;9.20;99.90;;;;;;4966226;28;20215;-68
2024/02/05 11:48:59;;;;;;;10.85;4.85;;;9.30;99.90;;;;;;4967190;28;20224;-68
2024/02/05 11:51:27;;;;;;;5.05;3.90;;;9.20;99.90;;;;;;4965332;28;20239;-70
2024/02/05 11:53:55;;;;;;;10.38;4.65;;;9.20;99.90;;;;;;4969901;28;20217;-68
2024/02/05 11:56:22;;;;;;;9.23;4.35;;;9.20;99.90;;;;;;4965833;28;20213;-67
2024/02/05 11:58:49;;;;;;;13.70;4.95;;;9.20;99.90;;;;;;4964822;28;20220;-68
2024/02/05 12:01:17;;;;;;;4.93;4.53;;;9.20;99.90;;;;;;4962311;28;20303;-68
2024/02/05 12:03:45;;;;;;;19.60;5.95;;;9.20;99.90;;;;;;4966052;28;20209;-68
2024/02/05 12:06:14;;;;;;;12.48;5.20;;;9.20;99.90;;;;;;4968356;28;20216;-69
2024/02/05 12:08:42;;;;;;;9.23;4.60;;;9.20;99.90;;;;;;4964280;28;20618;-69
2024/02/05 12:11:11;;;;;;;4.20;3.90;;;9.10;99.90;;;;;;4959627;28;20715;-70
2024/02/05 12:13:39;;;;;;;9.05;4.57;;;9.20;99.90;;;;;;4968846;28;20208;-68
2024/02/05 12:16:12;;;;;;;14.27;5.30;;;9.10;99.90;;;;;;4965140;28;20217;-70
2024/02/05 12:18:39;;;;;;;4.78;4.10;;;9.10;99.90;;;;;;4969088;28;20212;-69
2024/02/05 12:21:07;;;;;;;7.55;6.47;;;9.10;99.90;;;;;;4966333;28;20221;-67
2024/02/05 12:23:35;;;;;;;8.50;4.97;;;9.10;99.90;;;;;;4968895;28;20660;-68
2024/02/05 12:26:03;;;;;;;13.98;5.13;;;9.10;99.90;;;;;;4971287;28;20212;-70
2024/02/05 12:28:31;;;;;;;5.22;4.72;;;9.10;99.90;;;;;;4968174;28;20216;-68
2024/02/05 12:30:58;;;;;;;4.93;4.05;;;9.10;99.90;;;;;;4968965;28;20247;-69
2024/02/05 12:33:25;;;;;;;12.75;4.60;;;9.10;99.90;;;;;;4969383;28;20204;-69
2024/02/05 12:35:57;;;;;;;16.30;5.28;;;9.10;99.90;;;;;;4969539;28;20214;-69
2024/02/05 12:38:24;;;;;;;9.45;5.22;;;9.10;99.90;;;;;;4965463;28;20232;-69
2024/02/05 12:40:51;;;;;;;19.27;4.90;;;9.10;99.90;;;;;;4962308;28;20224;-69
2024/02/05 12:43:23;;;;;;;6.10;4.80;;;9.10;99.90;;;;;;4968076;28;20208;-71
2024/02/05 12:45:51;;;;;;;11.25;4.88;;;9.10;99.90;;;;;;4969133;28;20236;-68
2024/02/05 12:48:20;;;;;;;12.02;4.45;;;9.10;99.90;;;;;;4971916;28;20583;-69
2024/02/05 12:50:46;;;;;;;6.47;4.25;;;9.10;99.90;;;;;;4973218;28;20319;-69
2024/02/05 12:53:13;;;;;;;10.93;5.10;;;9.10;99.90;;;;;;4974411;28;20216;-69
2024/02/05 12:55:41;;;;;;;5.13;4.57;;;9.10;99.90;;;;;;4968526;28;20533;-70
2024/02/05 12:58:08;;;;;;;5.68;4.20;;;9.10;99.90;;;;;;4972008;28;20200;-73
2024/02/05 13:00:36;;;;;;;5.82;3.20;;;9.10;99.90;;;;;;4971178;28;20599;-68
2024/02/05 13:03:04;;;;;;;8.95;5.07;;;9.10;99.90;;;;;;4973929;28;20220;-69
2024/02/05 13:05:31;;;;;;;10.27;4.13;;;9.10;99.90;;;;;;4973181;28;20204;-68
2024/02/05 13:07:58;;;;;;;8.05;5.13;;;9.10;99.90;;;;;;4969474;28;20208;-68
2024/02/05 13:10:26;;;;;;;5.50;5.00;;;9.20;99.90;;;;;;4969784;28;20208;-69
2024/02/05 13:12:53;;;;;;;11.32;5.05;;;9.20;99.90;;;;;;4973867;28;20726;-69
2024/02/05 13:15:22;;;;;;;8.05;5.30;;;9.20;99.90;;;;;;4972321;28;20216;-69
2024/02/05 13:17:50;;;;;;;3.88;3.15;;;9.10;99.90;;;;;;4972998;28;20220;-70
2024/02/05 13:20:17;;;;;;;8.43;4.82;;;9.10;99.90;;;;;;4972615;28;20251;-70
2024/02/05 13:22:44;;;;;;;13.68;5.30;;;9.10;99.90;;;;;;4973071;28;20216;-70
2024/02/05 13:25:11;;;;;;;5.45;3.85;;;9.10;99.90;;;;;;4971868;28;20691;-69
2024/02/05 13:27:38;;;;;;;8.65;4.63;;;9.20;99.90;;;;;;4971446;28;20220;-69
2024/02/05 13:30:05;;;;;;;9.65;4.07;;;9.20;99.90;;;;;;4969050;28;20205;-68
2024/02/05 13:32:32;;;;;;;4.13;3.03;;;9.10;99.90;;;;;;4974292;28;20240;-69
2024/02/05 13:35:00;;;;;;;4.05;3.28;;;9.10;99.90;;;;;;4973025;28;20224;-69
2024/02/05 13:37:27;;;;;;;2.38;2.13;;;9.10;99.90;;;;;;4970522;28;20232;-68
2024/02/05 13:39:53;;;;;;;12.95;4.07;;;9.10;99.90;;;;;;4967839;28;20219;-67
2024/02/05 13:42:20;;;;;;;4.25;3.83;;;9.10;99.90;;;;;;4974537;28;20226;-69
2024/02/05 13:44:47;;;;;;;8.80;5.13;;;9.10;99.90;;;;;;4974491;28;20236;-69
2024/02/05 13:47:14;;;;;;;5.25;4.65;;;9.10;99.90;;;;;;4967286;28;20240;-69
2024/02/05 13:49:41;;;;;;;7.43;4.00;;;9.10;99.90;;;;;;4972830;28;20201;-69
2024/02/05 13:52:09;;;;;;;6.38;3.78;;;9.10;99.90;;;;;;4972098;28;20699;-69
2024/02/05 13:54:36;;;;;;;9.00;4.00;;;9.10;99.90;;;;;;4972864;28;20219;-70
2024/02/05 13:57:03;;;;;;;4.95;4.25;;;9.00;99.90;;;;;;4970425;28;20209;-69
2024/02/05 13:59:29;;;;;;;7.40;4.30;;;9.00;99.90;;;;;;4973405;28;20208;-69
2024/02/05 14:01:56;;;;;;;9.68;4.45;;;9.00;99.90;;;;;;4974684;28;20232;-69
2024/02/05 14:04:23;;;;;;;4.50;3.17;;;8.90;99.90;;;;;;4974879;28;20216;-69
2024/02/05 14:06:50;;;;;;;9.68;3.90;;;8.90;99.90;;;;;;4967564;28;20212;-70
2024/02/05 14:09:18;;;;;;;3.78;3.20;;;8.90;99.90;;;;;;4971905;28;20212;-69
2024/02/05 14:11:44;;;;;;;4.85;3.83;;;8.90;99.90;;;;;;4973832;28;20232;-69
2024/02/05 14:14:11;;;;;;;6.15;3.90;;;8.90;99.90;;;;;;4969071;28;20211;-71
2024/02/05 14:16:38;;;;;;;8.77;4.85;;;8.90;99.90;;;;;;4969713;28;20220;-69
2024/02/05 14:19:05;;;;;;;4.32;3.92;;;8.80;99.90;;;;;;4970187;28;20212;-69
2024/02/05 14:21:31;;;;;;;4.63;3.22;;;8.80;99.90;;;;;;4972076;28;20228;-70
2024/02/05 14:23:58;;;;;;;9.50;4.43;;;8.70;99.90;;;;;;4970682;28;20208;-68
2024/02/05 14:26:27;;;;;;;5.53;3.42;;;8.80;99.90;;;;;;4970365;28;20577;-69
2024/02/05 14:28:53;;;;;;;14.30;4.53;;;8.80;99.90;;;;;;4970138;28;20232;-69
2024/02/05 14:31:20;;;;;;;9.38;3.97;;;8.70;99.90;;;;;;4973052;28;20228;-70
2024/02/05 14:33:47;;;;;;;3.78;3.47;;;8.70;99.90;;;;;;4973195;28;20212;-69
2024/02/05 14:36:14;;;;;;;12.25;4.10;;;8.70;99.90;;;;;;4973112;28;20741;-69
2024/02/05 14:38:40;;;;;;;4.65;3.70;;;8.80;99.90;;;;;;4972213;28;20216;-68
2024/02/05 14:41:07;;;;;;;2.90;2.70;;;8.80;99.90;;;;;;4970808;28;20221;-68
2024/02/05 14:43:35;;;;;;;3.75;3.03;;;8.80;99.90;;;;;;4973400;28;20212;-68
2024/02/05 14:46:02;;;;;;;4.38;3.72;;;8.80;99.90;;;;;;4970391;28;20209;-68
2024/02/05 14:48:28;;;;;;;4.53;2.80;;;8.80;99.90;;;;;;4971894;28;20201;-68
2024/02/05 14:50:55;;;;;;;5.97;2.95;;;8.80;99.90;;;;;;4972149;28;20710;-68
2024/02/05 14:53:23;;;;;;;4.15;3.72;;;8.80;99.90;;;;;;4971700;28;20204;-70
2024/02/05 14:55:49;;;;;;;2.58;2.42;;;8.80;99.90;;;;;;4967815;28;20582;-68
2024/02/05 14:58:16;;;;;;;3.97;2.83;;;8.80;99.90;;;;;;4973107;28;20247;-69
2024/02/05 15:00:45;;;;;;;4.95;2.47;;;8.80;99.90;;;;;;4970971;28;20232;-69
2024/02/05 15:03:12;;;;;;;2.28;2.17;;;8.80;99.90;;;;;;4970408;28;20690;-68
2024/02/05 15:05:38;;;;;;;3.58;2.80;;;8.70;99.90;;;;;;4970238;28;20204;-68
2024/02/05 15:08:05;;;;;;;3.58;3.03;;;8.70;99.90;;;;;;4971485;28;20559;-70
2024/02/05 15:10:32;;;;;;;7.63;3.38;;;8.70;99.90;;;;;;4965637;28;20204;-69
2024/02/05 15:12:59;;;;;;;6.95;3.65;;;8.70;99.90;;;;;;4971178;28;20328;-68
2024/02/05 15:15:25;;;;;;;10.35;4.68;;;8.70;99.90;;;;;;4970302;28;20585;-69
2024/02/05 15:17:55;;;;;;;5.68;3.47;;;8.70;99.90;;;;;;4967295;28;20728;-68
2024/02/05 15:20:22;;;;;;;8.75;4.72;;;8.70;99.90;;;;;;4971916;28;20644;-69
2024/02/05 15:22:49;;;;;;;9.63;5.03;;;8.60;99.90;;;;;;4971067;28;20260;-71
2024/02/05 15:25:16;;;;;;;5.00;4.57;;;8.60;99.90;;;;;;4969681;28;20205;-68
2024/02/05 15:27:43;;;;;;;13.40;4.45;;;8.60;99.90;;;;;;4970191;28;20204;-68
2024/02/05 15:30:10;;;;;;;8.50;4.60;;;8.60;99.90;;;;;;4971837;28;20208;-68
2024/02/05 15:32:37;;;;;;;4.68;3.78;;;8.60;99.90;;;;;;4971868;28;20232;-69
2024/02/05 15:35:07;;;;;;;9.75;3.97;;;8.60;99.90;;;;;;4972970;28;20557;-70
2024/02/05 15:37:34;;;;;;;7.53;3.67;;;8.60;99.90;;;;;;4971446;28;20224;-69
2024/02/05 15:40:01;;;;;;;7.32;4.50;;;8.60;99.90;;;;;;4965787;28;20220;-71
2024/02/05 15:42:30;;;;;;;7.50;4.20;;;8.50;99.90;;;;;;4971410;28;20227;-69
2024/02/05 15:44:57;;;;;;;8.45;4.03;;;8.50;99.90;;;;;;4968449;28;20236;-69
2024/02/05 15:47:24;;;;;;;14.02;4.88;;;8.50;99.90;;;;;;4971838;28;20224;-70
2024/02/05 15:49:50;;;;;;;8.10;4.07;;;8.40;99.90;;;;;;4969544;28;20216;-69
2024/02/05 15:52:18;;;;;;;5.38;3.15;;;8.40;99.90;;;;;;4969728;28;20236;-71
2024/02/05 15:54:45;;;;;;;10.77;3.65;;;8.40;99.90;;;;;;4967884;28;20244;-72
2024/02/05 15:57:12;;;;;;;4.25;3.60;;;8.30;99.90;;;;;;4957816;28;20766;-72
2024/02/05 15:59:38;;;;;;;7.90;4.10;;;8.30;99.90;;;;;;4968330;28;20209;-69
2024/02/05 16:02:06;;;;;;;3.85;3.13;;;8.30;99.90;;;;;;4965739;28;20281;-71
2024/02/05 16:04:32;;;;;;;10.48;4.45;;;8.40;99.90;;;;;;4971153;28;20209;-69
2024/02/05 16:06:59;;;;;;;4.68;1.80;;;8.30;99.90;;;;;;4969559;28;20255;-71
2024/02/05 16:09:27;;;;;;;4.35;3.95;;;8.40;99.90;;;;;;4970471;28;20555;-70
2024/02/05 16:11:54;;;;;;;7.25;5.15;;;8.40;99.90;;;;;;4966370;28;20227;-70
2024/02/05 16:14:21;;;;;;;5.78;4.13;;;8.40;99.90;;;;;;4967542;28;20205;-70
2024/02/05 16:16:47;;;;;;;7.95;5.18;;;8.40;99.90;;;;;;4959708;28;20312;-70
2024/02/05 16:19:14;;;;;;;5.68;4.93;;;8.30;99.90;;;;;;4968281;28;20200;-69
2024/02/05 16:21:41;;;;;;;4.60;4.30;;;8.30;99.90;;;;;;4968424;28;20233;-69
2024/02/05 16:24:08;;;;;;;6.07;4.22;;;8.30;99.90;;;;;;4969926;28;20224;-70
2024/02/05 16:26:36;;;;;;;13.32;5.50;;;8.30;99.90;;;;;;4967689;28;20220;-70
2024/02/05 16:29:03;;;;;;;11.07;4.50;;;8.30;99.90;;;;;;4967094;28;20215;-70
2024/02/05 16:31:30;;;;;;;6.82;3.78;;;8.30;99.90;;;;;;4966858;28;20373;-70
2024/02/05 16:33:56;;;;;;;4.10;3.53;;;8.30;99.90;;;;;;4969643;28;20212;-70
2024/02/05 16:36:27;;;;;;;5.40;3.50;;;8.30;99.90;;;;;;4968373;28;20236;-70
2024/02/05 16:38:53;;;;;;;6.53;3.92;;;8.30;99.90;;;;;;4967268;28;20212;-69
2024/02/05 16:41:20;;;;;;;5.55;4.80;;;8.30;99.90;;;;;;4966712;28;20236;-70
2024/02/05 16:43:48;;;;;;;6.13;3.22;;;8.40;99.90;;;;;;4969040;28;20219;-69
2024/02/05 16:46:15;;;;;;;11.27;3.67;;;8.50;99.90;;;;;;4966253;28;20208;-69
2024/02/05 16:48:42;;;;;;;3.47;3.25;;;8.60;99.90;;;;;;4960013;28;20215;-69
2024/02/05 16:51:09;;;;;;;11.38;3.80;;;8.60;99.90;;;;;;4962877;28;20247;-70
2024/02/05 16:53:40;;;;;;;4.85;4.38;;;8.60;99.90;;;;;;4966359;28;20232;-70
2024/02/05 16:56:08;;;;;;;8.35;4.32;;;8.70;99.90;;;;;;4968971;28;20201;-70
2024/02/05 16:58:35;;;;;;;10.70;5.28;;;8.70;99.90;;;;;;4967865;28;20216;-70
2024/02/05 17:01:03;;;;;;;6.15;3.90;;;8.70;99.90;;;;;;4964274;28;20243;-70
2024/02/05 17:03:30;;;;;;;9.25;3.42;;;8.70;99.90;;;;;;4957503;28;20197;-71
2024/02/05 17:05:56;;;;;;;8.43;4.63;;;8.70;99.90;;;;;;4969438;28;20201;-70
2024/02/05 17:08:24;;;;;;;7.80;3.72;;;8.80;99.90;;;;;;4964679;28;20213;-70
2024/02/05 17:10:50;;;;;;;7.45;3.10;;;8.80;99.90;;;;;;4967362;28;20255;-69
2024/02/05 17:13:17;;;;;;;5.05;3.67;;;8.80;99.90;;;;;;4968562;28;20232;-69
2024/02/05 17:15:46;;;;;;;11.18;4.68;;;8.80;99.90;;;;;;4961965;28;20688;-70
2024/02/05 17:18:14;;;;;;;13.02;5.10;;;8.80;99.90;;;;;;4966330;28;20208;-68
2024/02/05 17:20:40;;;;;;;6.25;3.10;;;8.80;99.90;;;;;;4965781;28;20228;-70
2024/02/05 17:23:07;;;;;;;5.60;5.10;;;8.80;99.90;;;;;;4965425;28;20205;-68
2024/02/05 17:25:34;;;;;;;10.90;5.32;;;8.80;99.90;;;;;;4966930;28;20695;-69
2024/02/05 17:28:01;;;;;;;7.68;4.22;;;8.80;99.90;;;;;;4964939;28;20212;-69
2024/02/05 17:30:27;;;;;;;7.07;5.22;;;8.80;99.90;;;;;;4959046;28;20213;-69
2024/02/05 17:32:54;;;;;;;9.20;4.70;;;8.80;99.90;;;;;;4960439;28;20601;-69
2024/02/05 17:35:22;;;;;;;7.50;5.20;;;8.80;99.90;;;;;;4972916;28;20212;-70
2024/02/05 17:37:49;;;;;;;6.20;4.55;;;8.80;99.90;;;;;;4967497;28;20229;-69
2024/02/05 17:40:16;;;;;;;8.60;3.90;;;8.80;99.90;;;;;;4974305;28;20305;-69
2024/02/05 17:42:42;;;;;;;7.90;4.45;;;8.80;99.90;;;;;;4955503;28;20215;-69
2024/02/05 17:45:09;;;;;;;8.95;4.97;;;8.80;99.90;;;;;;4966818;28;20212;-69
2024/02/05 17:47:36;;;;;;;7.80;5.45;;;8.80;99.90;;;;;;4970732;28;20244;-69
2024/02/05 17:50:03;;;;;;;5.10;4.55;;;8.70;99.90;;;;;;4968713;28;20296;-70
2024/02/05 17:52:31;;;;;;;12.90;5.05;;;8.70;99.90;;;;;;4970203;28;20231;-69
2024/02/05 17:55:01;;;;;;;7.90;5.03;;;8.70;99.90;;;;;;4967457;28;20209;-69
2024/02/05 17:57:27;;;;;;;8.50;6.65;;;8.70;99.90;;;;;;4970699;28;20283;-69